This is the latest recevied weather packets stored in our database for station/object HI6LT. If no packets are shown the sender has not sent any weather packets the latest 10 day(s).
| Time | Temp. | Humidity | Pressure | Rain* | Wind** | Luminosity | Snow |
|---|---|---|---|---|---|---|---|
| 1777586713 | 18.33° C | 91% | 1030.9 hPa | 0 mm | - | - | - |
| 1777585299 | 17.78° C | 96% | 1031 hPa | 0 mm | - | - | - |
| 1777584779 | 17.78° C | 96% | 1031.2 hPa | 0 mm | - | - | - |
| 1777583577 | 18.33° C | 93% | 1031.1 hPa | 0 mm | - | - | - |
| 1777583498 | 17.78° C | 97% | 1030.9 hPa | 0 mm | - | - | - |
| 1777582077 | 17.78° C | 92% | 1030.8 hPa | 0 mm | - | - | - |
| 1777581697 | 18.33° C | 91% | 1030.9 hPa | 0 mm | - | - | - |
| 1777581354 | 17.78° C | 95% | 1031.3 hPa | 0 mm | - | - | - |
| 1777580815 | 18.89° C | 96% | 1032 hPa | 0 mm | - | - | - |
| 1777579977 | 16.67° C | 97% | 1031.9 hPa | 0 mm | - | - | - |
| 1777579906 | 18.33° C | 93% | 1031.1 hPa | 0 mm | - | - | - |
| 1777579374 | 17.78° C | 95% | 1031 hPa | 0 mm | - | - | - |
| 1777578814 | 16.67° C | 96% | 1032.4 hPa | 0 mm | - | - | - |
| 1777578103 | 17.78° C | 95% | 1031.3 hPa | 0 mm | - | - | - |
| 1777577577 | 17.78° C | 94% | 1032.3 hPa | 0 mm | - | - | - |
| 1777576673 | 18.89° C | 94% | 1031.6 hPa | 0 mm | - | - | - |
| 1777576303 | 18.89° C | 96% | 1032 hPa | 0 mm | - | - | - |
| 1777574502 | 16.67° C | 97% | 1031.9 hPa | 0 mm | - | - | - |
| 1777573972 | 16.67° C | 97% | 1032.1 hPa | 0 mm | - | - | - |
| 1777572982 | 21.11° C | 81% | 1032.8 hPa | 0 mm | - | - | - |
| 1777572701 | 16.67° C | 96% | 1032.4 hPa | 0 mm | - | - | - |
| 1777571280 | 17.78° C | 96% | 1032.3 hPa | 0 mm | - | - | - |
| 1777570900 | 17.78° C | 94% | 1032.3 hPa | 0 mm | - | - | - |
| 1777569099 | 19.44° C | 88% | 1032.6 hPa | 0 mm | - | - | - |
| 1777568579 | 19.44° C | 86% | 1032.5 hPa | 0 mm | - | - | - |
* Rain latest hour (hover to see other rain measurements)
** Current wind speed in m/s (hover to see current wind gust speed)